Time;durP1;ratioP1;P1;durP2;ratioP2;P2;SDS_P1;SDS_P2;PMS_P1;PMS_P2;Temp;Humidity;BMP_temperature;BMP_pressure;BME280_temperature;BME280_humidity;BME280_pressure;Samples;Min_cycle;Max_cycle;Signal;HPM_P1;HPM_P2
2024/02/09 00:00:57;;;;;;;2.42;0.98;;;;;;;;;;5079942;28;20364;-80
2024/02/09 00:03:29;;;;;;;2.30;1.10;;;;;;;;;;5085337;28;20032;-80
2024/02/09 00:05:55;;;;;;;1.75;0.63;;;;;;;;;;5095622;28;20023;-79
2024/02/09 00:08:22;;;;;;;0.75;0.60;;;;;;;;;;5086201;28;20043;-79
2024/02/09 00:10:48;;;;;;;0.68;0.57;;;;;;;;;;5084443;28;20017;-79
2024/02/09 00:13:15;;;;;;;0.88;0.60;;;;;;;;;;5096539;28;20059;-80
2024/02/09 00:15:42;;;;;;;0.52;0.43;;;;;;;;;;5082137;28;20025;-79
2024/02/09 00:18:10;;;;;;;0.30;0.30;;;;;;;;;;5072791;28;20076;-79
2024/02/09 00:20:37;;;;;;;0.50;0.35;;;;;;;;;;5074113;28;20032;-80
2024/02/09 00:23:03;;;;;;;0.40;0.40;;;;;;;;;;5081290;28;20039;-80
2024/02/09 00:25:29;;;;;;;0.45;0.45;;;;;;;;;;5081277;28;20024;-80
2024/02/09 00:27:56;;;;;;;0.77;0.57;;;;;;;;;;5064522;28;20051;-80
2024/02/09 00:30:24;;;;;;;0.40;0.40;;;;;;;;;;5083894;28;20035;-80
2024/02/09 00:32:51;;;;;;;0.50;0.50;;;;;;;;;;5083892;28;20059;-80
2024/02/09 00:35:17;;;;;;;0.65;0.45;;;;;;;;;;5085380;28;20040;-79
2024/02/09 00:37:44;;;;;;;0.40;0.40;;;;;;;;;;5084481;28;20024;-80
2024/02/09 00:40:10;;;;;;;0.30;0.20;;;;;;;;;;5082395;28;20092;-80
2024/02/09 00:42:38;;;;;;;1.85;0.50;;;;;;;;;;5092042;28;20040;-80
2024/02/09 00:45:04;;;;;;;0.60;0.38;;;;;;;;;;5104761;28;20031;-80
2024/02/09 00:47:31;;;;;;;0.43;0.25;;;;;;;;;;5106819;28;20084;-78
2024/02/09 00:49:57;;;;;;;0.40;0.40;;;;;;;;;;5104518;28;20032;-79
2024/02/09 00:52:24;;;;;;;0.45;0.32;;;;;;;;;;5105045;28;20044;-80
2024/02/09 00:54:53;;;;;;;0.32;0.20;;;;;;;;;;5086274;28;20021;-80
2024/02/09 00:57:19;;;;;;;0.45;0.40;;;;;;;;;;5083270;28;20141;-80
2024/02/09 00:59:46;;;;;;;1.10;0.35;;;;;;;;;;5067595;28;20048;-80
2024/02/09 01:02:12;;;;;;;0.55;0.32;;;;;;;;;;5083479;28;20036;-79
2024/02/09 01:04:38;;;;;;;0.30;0.30;;;;;;;;;;5072585;28;20024;-80
2024/02/09 01:07:05;;;;;;;1.15;0.30;;;;;;;;;;5096515;28;20055;-79
2024/02/09 01:09:32;;;;;;;0.30;0.30;;;;;;;;;;5087477;28;20099;-79
2024/02/09 01:11:59;;;;;;;1.80;0.40;;;;;;;;;;5083702;28;20027;-79
2024/02/09 02:44:53;;;;;;;0.88;0.68;;;;;;;;;;5081706;28;20422;-80
2024/02/09 02:47:19;;;;;;;0.80;0.80;;;;;;;;;;5075481;28;20021;-80
2024/02/09 03:06:15;;;;;;;1.63;0.90;;;;;;;;;;5096518;28;20038;-79
2024/02/09 03:08:41;;;;;;;0.80;0.80;;;;;;;;;;5094946;28;20048;-80
2024/02/09 03:11:07;;;;;;;1.08;0.75;;;;;;;;;;5073577;28;20107;-79
2024/02/09 03:13:33;;;;;;;0.60;0.60;;;;;;;;;;5096710;28;20028;-79
2024/02/09 03:16:00;;;;;;;0.77;0.68;;;;;;;;;;5092048;28;20074;-80
2024/02/09 03:18:26;;;;;;;0.63;0.60;;;;;;;;;;5080658;28;20017;-80
2024/02/09 03:20:55;;;;;;;1.25;0.70;;;;;;;;;;5081463;28;20103;-80
2024/02/09 03:23:22;;;;;;;0.77;0.60;;;;;;;;;;5088432;28;20020;-81
2024/02/09 03:25:50;;;;;;;0.90;0.77;;;;;;;;;;5086325;28;20019;-79
2024/02/09 03:28:18;;;;;;;0.57;0.50;;;;;;;;;;5074043;28;20013;-80
2024/02/09 03:30:44;;;;;;;1.27;0.65;;;;;;;;;;5072409;28;20016;-80
2024/02/09 03:33:12;;;;;;;0.73;0.60;;;;;;;;;;5075570;28;20028;-80
2024/02/09 03:35:38;;;;;;;0.73;0.73;;;;;;;;;;5075476;28;20063;-80
2024/02/09 03:38:04;;;;;;;0.60;0.60;;;;;;;;;;5080536;28;20017;-79
2024/02/09 03:40:32;;;;;;;1.35;1.00;;;;;;;;;;5079274;28;20062;-80
2024/02/09 03:42:58;;;;;;;0.65;0.65;;;;;;;;;;5078608;28;20021;-81
2024/02/09 03:45:24;;;;;;;0.80;0.60;;;;;;;;;;5087714;28;20028;-80
2024/02/09 03:47:52;;;;;;;1.50;0.60;;;;;;;;;;5065187;28;20442;-80
2024/02/09 03:50:18;;;;;;;1.13;0.90;;;;;;;;;;5073396;28;20044;-79
2024/02/09 03:52:44;;;;;;;0.85;0.70;;;;;;;;;;5078886;28;20027;-79
2024/02/09 03:55:16;;;;;;;0.75;0.60;;;;;;;;;;5081305;28;20024;-80
2024/02/09 03:57:44;;;;;;;0.50;0.50;;;;;;;;;;5090581;28;20500;-80
2024/02/09 04:00:15;;;;;;;0.68;0.57;;;;;;;;;;5082918;28;20021;-80
2024/02/09 04:02:42;;;;;;;0.55;0.55;;;;;;;;;;5076986;28;20104;-79
2024/02/09 04:05:09;;;;;;;0.85;0.70;;;;;;;;;;5074908;28;20035;-78
2024/02/09 04:07:35;;;;;;;0.77;0.77;;;;;;;;;;5075001;28;20031;-80
2024/02/09 04:10:02;;;;;;;0.70;0.70;;;;;;;;;;5076657;28;20040;-80
2024/02/09 04:12:29;;;;;;;1.05;0.80;;;;;;;;;;5084090;28;20031;-80
2024/02/09 04:14:55;;;;;;;0.57;0.55;;;;;;;;;;5077970;28;20017;-80
2024/02/09 04:17:22;;;;;;;0.50;0.50;;;;;;;;;;5070915;28;20028;-79
2024/02/09 04:19:48;;;;;;;0.50;0.50;;;;;;;;;;5079505;28;20240;-80
2024/02/09 04:22:15;;;;;;;1.00;0.60;;;;;;;;;;5084506;28;20074;-78
2024/02/09 04:24:41;;;;;;;0.60;0.50;;;;;;;;;;5065231;28;20377;-80
2024/02/09 04:27:07;;;;;;;0.70;0.57;;;;;;;;;;5077328;28;20328;-81
2024/02/09 04:29:33;;;;;;;0.30;0.30;;;;;;;;;;5068875;28;20044;-81
2024/02/09 04:32:01;;;;;;;0.40;0.40;;;;;;;;;;5075317;28;20029;-79
2024/02/09 04:34:27;;;;;;;0.30;0.30;;;;;;;;;;5072046;28;20494;-79
2024/02/09 04:36:55;;;;;;;0.40;0.40;;;;;;;;;;5077221;28;20124;-80
2024/02/09 04:39:21;;;;;;;0.30;0.30;;;;;;;;;;5068030;28;20484;-79
2024/02/09 04:41:49;;;;;;;0.32;0.32;;;;;;;;;;5076939;28;20028;-79
2024/02/09 04:44:15;;;;;;;0.40;0.40;;;;;;;;;;5081975;28;20025;-79
2024/02/09 04:46:42;;;;;;;0.50;0.50;;;;;;;;;;5074681;28;20028;-78
2024/02/09 04:49:10;;;;;;;0.30;0.30;;;;;;;;;;5074015;28;20056;-78
2024/02/09 04:51:42;;;;;;;0.73;0.50;;;;;;;;;;5074966;28;20431;-78
2024/02/09 04:54:08;;;;;;;0.45;0.40;;;;;;;;;;5070464;28;20020;-78
2024/02/09 04:56:35;;;;;;;0.73;0.73;;;;;;;;;;5068123;28;20024;-80
2024/02/09 04:59:04;;;;;;;0.57;0.55;;;;;;;;;;5073259;28;20028;-79
2024/02/09 05:01:31;;;;;;;0.60;0.60;;;;;;;;;;5074815;28;20028;-78
2024/02/09 05:03:58;;;;;;;0.75;0.55;;;;;;;;;;5075872;28;20143;-79
2024/02/09 05:06:24;;;;;;;0.77;0.45;;;;;;;;;;5090578;28;20435;-77
2024/02/09 05:08:51;;;;;;;0.43;0.40;;;;;;;;;;5083784;28;20044;-78
2024/02/09 05:11:18;;;;;;;0.43;0.43;;;;;;;;;;5069561;28;20480;-77
2024/02/09 05:13:45;;;;;;;0.68;0.68;;;;;;;;;;5081671;28;20388;-78
2024/02/09 05:16:11;;;;;;;1.38;0.82;;;;;;;;;;5074006;28;20033;-77
2024/02/09 05:18:37;;;;;;;0.30;0.30;;;;;;;;;;5067876;28;20080;-78
2024/02/09 05:21:03;;;;;;;0.50;0.50;;;;;;;;;;5065986;28;20045;-79
2024/02/09 05:23:30;;;;;;;0.93;0.45;;;;;;;;;;5075530;28;20032;-79
2024/02/09 05:25:56;;;;;;;0.40;0.40;;;;;;;;;;5086557;28;20160;-78
2024/02/09 05:28:23;;;;;;;0.50;0.50;;;;;;;;;;5080548;28;20045;-79
2024/02/09 05:30:49;;;;;;;0.50;0.50;;;;;;;;;;5086151;28;20032;-80
2024/02/09 05:33:18;;;;;;;0.57;0.38;;;;;;;;;;5080870;28;20024;-78
2024/02/09 05:35:44;;;;;;;0.93;0.50;;;;;;;;;;5069471;28;20025;-78
2024/02/09 05:38:11;;;;;;;1.42;0.70;;;;;;;;;;5082718;28;20025;-78
2024/02/09 05:40:37;;;;;;;0.73;0.50;;;;;;;;;;5069791;28;20498;-78
2024/02/09 05:43:03;;;;;;;0.40;0.40;;;;;;;;;;5077467;28;20063;-79
2024/02/09 05:45:30;;;;;;;0.60;0.60;;;;;;;;;;5085936;28;20028;-78
2024/02/09 05:47:56;;;;;;;0.50;0.50;;;;;;;;;;5089803;28;20019;-79
2024/02/09 05:50:22;;;;;;;0.70;0.38;;;;;;;;;;5075321;28;20025;-78
2024/02/09 05:52:49;;;;;;;1.00;0.43;;;;;;;;;;5076484;28;20024;-79
2024/02/09 05:55:15;;;;;;;0.75;0.40;;;;;;;;;;5095971;28;20028;-78
2024/02/09 05:57:42;;;;;;;0.57;0.50;;;;;;;;;;5075107;28;20057;-79
2024/02/09 06:00:14;;;;;;;0.55;0.50;;;;;;;;;;5085737;28;20036;-79
2024/02/09 06:02:41;;;;;;;0.75;0.40;;;;;;;;;;5098602;27;20055;-82
2024/02/09 06:05:07;;;;;;;0.65;0.50;;;;;;;;;;5096141;28;20031;-81
2024/02/09 06:07:34;;;;;;;0.52;0.40;;;;;;;;;;5083663;28;20052;-79
2024/02/09 06:10:00;;;;;;;0.40;0.40;;;;;;;;;;5085236;28;20024;-76
2024/02/09 06:12:26;;;;;;;0.55;0.40;;;;;;;;;;5092485;28;20026;-77
2024/02/09 06:14:59;;;;;;;0.40;0.40;;;;;;;;;;5089348;28;20471;-77
2024/02/09 06:17:26;;;;;;;0.50;0.50;;;;;;;;;;5077036;28;20039;-77
2024/02/09 06:19:52;;;;;;;0.60;0.60;;;;;;;;;;5076859;28;20472;-77
2024/02/09 06:22:18;;;;;;;0.60;0.60;;;;;;;;;;5070550;28;20047;-78
2024/02/09 06:24:44;;;;;;;0.57;0.57;;;;;;;;;;5079279;28;20035;-79
2024/02/09 06:27:11;;;;;;;0.30;0.30;;;;;;;;;;5083491;28;20020;-77
2024/02/09 06:29:38;;;;;;;0.47;0.47;;;;;;;;;;5082805;28;20024;-78
2024/02/09 06:32:05;;;;;;;0.55;0.30;;;;;;;;;;5084390;28;20052;-78
2024/02/09 06:34:31;;;;;;;0.20;0.20;;;;;;;;;;5076478;28;20512;-78
2024/02/09 06:36:58;;;;;;;0.30;0.30;;;;;;;;;;5073496;28;20063;-77
2024/02/09 06:39:24;;;;;;;0.47;0.40;;;;;;;;;;5075556;28;20382;-77
2024/02/09 06:41:51;;;;;;;0.40;0.38;;;;;;;;;;5072915;28;20034;-77
2024/02/09 06:44:18;;;;;;;0.38;0.38;;;;;;;;;;5082575;28;20099;-78
2024/02/09 06:46:45;;;;;;;0.30;0.30;;;;;;;;;;5068102;28;20035;-77
2024/02/09 06:49:11;;;;;;;0.40;0.40;;;;;;;;;;5068739;28;20017;-77
2024/02/09 06:51:38;;;;;;;0.30;0.30;;;;;;;;;;5081962;28;20080;-77
2024/02/09 06:54:05;;;;;;;0.40;0.40;;;;;;;;;;5106495;22;20017;-79
2024/02/09 06:56:31;;;;;;;0.40;0.40;;;;;;;;;;5056083;28;20029;-81
2024/02/09 06:59:00;;;;;;;0.30;0.30;;;;;;;;;;5059331;28;20045;-79
2024/02/09 07:01:26;;;;;;;0.28;0.28;;;;;;;;;;5049236;28;20525;-80
2024/02/09 07:03:53;;;;;;;0.30;0.30;;;;;;;;;;5042061;28;20045;-79
2024/02/09 07:06:22;;;;;;;0.35;0.35;;;;;;;;;;5045769;28;20018;-80
2024/02/09 07:08:53;;;;;;;0.38;0.28;;;;;;;;;;5030898;28;20048;-80
2024/02/09 07:11:19;;;;;;;0.30;0.30;;;;;;;;;;5047517;28;20502;-79
2024/02/09 07:13:46;;;;;;;0.40;0.40;;;;;;;;;;5070563;28;20039;-79
2024/02/09 07:16:13;;;;;;;0.35;0.35;;;;;;;;;;5051459;28;20010;-80
2024/02/09 07:18:41;;;;;;;0.43;0.40;;;;;;;;;;5049011;28;20490;-80
2024/02/09 07:21:12;;;;;;;0.50;0.50;;;;;;;;;;5060261;28;20021;-78
2024/02/09 07:23:39;;;;;;;0.30;0.30;;;;;;;;;;5063992;28;20092;-78
2024/02/09 07:26:09;;;;;;;0.20;0.20;;;;;;;;;;5053880;28;20025;-79
2024/02/09 07:28:35;;;;;;;0.60;0.60;;;;;;;;;;5042121;28;20025;-79
2024/02/09 07:31:01;;;;;;;0.40;0.40;;;;;;;;;;5040861;28;20021;-80
2024/02/09 07:33:27;;;;;;;0.50;0.50;;;;;;;;;;5052288;28;20082;-80
2024/02/09 07:35:57;;;;;;;0.47;0.47;;;;;;;;;;5044284;28;20063;-79
2024/02/09 07:38:23;;;;;;;0.35;0.30;;;;;;;;;;5057289;28;20036;-79
2024/02/09 07:40:49;;;;;;;0.50;0.38;;;;;;;;;;5039892;28;20034;-80
2024/02/09 07:43:16;;;;;;;0.25;0.25;;;;;;;;;;5073594;28;20033;-77
2024/02/09 07:45:42;;;;;;;0.30;0.30;;;;;;;;;;5057219;28;20051;-80
2024/02/09 07:48:08;;;;;;;0.30;0.30;;;;;;;;;;5051938;28;20036;-79
2024/02/09 07:50:40;;;;;;;0.40;0.40;;;;;;;;;;5042009;28;20021;-78
2024/02/09 07:53:06;;;;;;;0.80;0.60;;;;;;;;;;5055657;28;20067;-79
2024/02/09 07:55:33;;;;;;;0.88;0.77;;;;;;;;;;5039109;28;20029;-78
2024/02/09 07:57:59;;;;;;;0.68;0.68;;;;;;;;;;5062949;28;20036;-78
2024/02/09 08:00:25;;;;;;;0.80;0.60;;;;;;;;;;5060014;28;20027;-79
2024/02/09 08:02:54;;;;;;;0.70;0.55;;;;;;;;;;5056937;28;20045;-80
2024/02/09 08:05:20;;;;;;;0.50;0.50;;;;;;;;;;5069682;28;20052;-79
2024/02/09 08:07:46;;;;;;;0.75;0.75;;;;;;;;;;5022133;28;20017;-81
2024/02/09 08:10:15;;;;;;;0.50;0.50;;;;;;;;;;5040393;28;20045;-79
2024/02/09 08:12:42;;;;;;;0.60;0.60;;;;;;;;;;5057431;28;20017;-80
2024/02/09 08:15:11;;;;;;;0.90;0.80;;;;;;;;;;5041660;28;20021;-79
2024/02/09 08:17:52;;;;;;;2.55;1.52;;;;;;;;;;5049095;28;20045;-79
2024/02/09 08:20:21;;;;;;;2.88;2.10;;;;;;;;;;5019623;28;20036;-80
2024/02/09 08:22:48;;;;;;;4.05;2.58;;;;;;;;;;5028663;28;20099;-80
2024/02/09 08:25:14;;;;;;;5.13;2.53;;;;;;;;;;5050423;28;20033;-81
2024/02/09 08:27:41;;;;;;;8.43;2.90;;;;;;;;;;5039571;28;20120;-81
2024/02/09 08:30:08;;;;;;;5.93;2.65;;;;;;;;;;5030407;28;20475;-80
2024/02/09 08:32:34;;;;;;;7.07;3.53;;;;;;;;;;5030486;28;20399;-80
2024/02/09 08:35:01;;;;;;;2.78;2.30;;;;;;;;;;5040342;28;20036;-80
2024/02/09 08:37:30;;;;;;;3.28;2.10;;;;;;;;;;5050421;28;20049;-80
2024/02/09 08:39:57;;;;;;;4.90;3.13;;;;;;;;;;5031463;28;20025;-80
2024/02/09 08:42:23;;;;;;;2.88;1.65;;;;;;;;;;5077786;28;20032;-79
2024/02/09 08:44:49;;;;;;;2.88;1.98;;;;;;;;;;5066832;28;20085;-80
2024/02/09 08:47:15;;;;;;;3.10;2.13;;;;;;;;;;5068878;28;20048;-79
2024/02/09 08:49:45;;;;;;;2.67;1.60;;;;;;;;;;5064266;28;20036;-79
2024/02/09 08:52:14;;;;;;;6.00;2.35;;;;;;;;;;5046920;28;20020;-79
2024/02/09 08:54:41;;;;;;;2.08;1.30;;;;;;;;;;5045158;28;20054;-79
2024/02/09 08:57:07;;;;;;;3.00;1.60;;;;;;;;;;5041772;28;20028;-80
2024/02/09 08:59:34;;;;;;;2.33;1.67;;;;;;;;;;5047317;28;20018;-80
2024/02/09 09:02:01;;;;;;;1.73;1.33;;;;;;;;;;5067832;28;20025;-80
2024/02/09 09:04:29;;;;;;;2.10;1.25;;;;;;;;;;5028984;28;20321;-80
2024/02/09 09:06:57;;;;;;;5.53;1.73;;;;;;;;;;5043475;28;20029;-80
2024/02/09 09:09:23;;;;;;;2.42;1.65;;;;;;;;;;5032512;28;20029;-81
2024/02/09 09:11:49;;;;;;;3.42;2.00;;;;;;;;;;5051093;28;20479;-80
2024/02/09 09:14:15;;;;;;;5.03;2.28;;;;;;;;;;5043063;28;20115;-80
2024/02/09 09:16:42;;;;;;;3.88;2.28;;;;;;;;;;5043859;28;20049;-79
2024/02/09 09:19:09;;;;;;;5.90;2.00;;;;;;;;;;5042680;28;20455;-79
2024/02/09 09:21:37;;;;;;;4.20;2.25;;;;;;;;;;5056052;28;20067;-80
2024/02/09 09:24:04;;;;;;;3.10;2.10;;;;;;;;;;5045755;28;20029;-80
2024/02/09 09:26:30;;;;;;;4.85;1.92;;;;;;;;;;5062839;28;20131;-80
2024/02/09 09:29:00;;;;;;;3.70;2.22;;;;;;;;;;5042615;28;20032;-79
2024/02/09 09:31:27;;;;;;;2.00;1.27;;;;;;;;;;5029837;28;20028;-80
2024/02/09 09:33:56;;;;;;;2.40;1.52;;;;;;;;;;5042024;28;20757;-80
2024/02/09 09:36:23;;;;;;;4.60;1.73;;;;;;;;;;5046774;28;20329;-81
2024/02/09 09:38:49;;;;;;;1.83;1.30;;;;;;;;;;5046231;28;20020;-79
2024/02/09 09:41:19;;;;;;;1.95;1.05;;;;;;;;;;5042501;28;20066;-80
2024/02/09 09:43:49;;;;;;;1.33;1.00;;;;;;;;;;5042790;28;20017;-80
2024/02/09 09:46:21;;;;;;;1.30;0.98;;;;;;;;;;5062195;28;20417;-80
2024/02/09 09:48:48;;;;;;;;;;;;;;;;;;5043942;28;20013;-80
2024/02/09 09:51:14;;;;;;;1.25;0.93;;;;;;;;;;5022573;28;20003;-80
2024/02/09 09:53:42;;;;;;;1.00;0.68;;;;;;;;;;5039754;28;20375;-80
2024/02/09 09:56:09;;;;;;;1.85;0.70;;;;;;;;;;5058354;28;20040;-78
2024/02/09 09:58:35;;;;;;;1.75;1.00;;;;;;;;;;5043266;28;20048;-79
2024/02/09 10:01:08;;;;;;;1.88;0.95;;;;;;;;;;5062484;28;20089;-80
2024/02/09 10:03:38;;;;;;;1.67;0.80;;;;;;;;;;5061395;28;20059;-79
2024/02/09 10:06:05;;;;;;;1.00;0.80;;;;;;;;;;5057191;28;20017;-79
2024/02/09 10:08:35;;;;;;;1.20;0.90;;;;;;;;;;5057560;28;20010;-79
2024/02/09 10:11:02;;;;;;;2.45;1.15;;;;;;;;;;5062822;28;20101;-80
2024/02/09 10:13:28;;;;;;;1.77;1.20;;;;;;;;;;5067905;28;20044;-79
2024/02/09 10:15:55;;;;;;;3.95;1.73;;;;;;;;;;5048812;28;20033;-80
2024/02/09 10:18:22;;;;;;;1.65;1.20;;;;;;;;;;5031002;28;20029;-81
2024/02/09 10:20:48;;;;;;;1.70;1.00;;;;;;;;;;5047592;28;20569;-79
2024/02/09 10:23:15;;;;;;;1.15;0.90;;;;;;;;;;5042445;28;20033;-81
2024/02/09 10:25:43;;;;;;;3.80;1.25;;;;;;;;;;5026737;28;20077;-80
2024/02/09 10:28:09;;;;;;;1.70;1.08;;;;;;;;;;5022265;28;20018;-82
2024/02/09 10:30:35;;;;;;;2.70;1.50;;;;;;;;;;5027393;28;20052;-81
2024/02/09 10:33:02;;;;;;;0.98;0.90;;;;;;;;;;5056124;28;20096;-80
2024/02/09 10:35:28;;;;;;;2.63;1.00;;;;;;;;;;5028599;28;20050;-79
2024/02/09 10:37:57;;;;;;;2.72;1.05;;;;;;;;;;5052440;28;20037;-79
2024/02/09 10:40:24;;;;;;;1.15;0.90;;;;;;;;;;5047003;28;20018;-80
2024/02/09 10:42:51;;;;;;;1.50;0.88;;;;;;;;;;5053893;28;20070;-81
2024/02/09 10:45:18;;;;;;;1.35;0.90;;;;;;;;;;5034897;28;20022;-81
2024/02/09 10:47:46;;;;;;;1.00;0.70;;;;;;;;;;5022018;28;20033;-81
2024/02/09 10:50:12;;;;;;;1.77;1.27;;;;;;;;;;5044257;28;20104;-80
2024/02/09 10:52:44;;;;;;;0.82;0.70;;;;;;;;;;5043877;28;20033;-79
2024/02/09 10:55:14;;;;;;;1.27;0.70;;;;;;;;;;5059335;28;20028;-79
2024/02/09 10:57:42;;;;;;;1.60;0.80;;;;;;;;;;5043266;28;20070;-80
2024/02/09 11:00:10;;;;;;;0.88;0.50;;;;;;;;;;5040718;28;20017;-81
2024/02/09 11:02:37;;;;;;;1.95;0.52;;;;;;;;;;5023774;28;20034;-80
2024/02/09 11:05:04;;;;;;;0.60;0.60;;;;;;;;;;5032058;28;20028;-80
2024/02/09 11:07:32;;;;;;;0.45;0.45;;;;;;;;;;5041096;28;20067;-81
2024/02/09 11:10:01;;;;;;;1.98;0.47;;;;;;;;;;5040402;28;20137;-79
2024/02/09 11:12:27;;;;;;;2.65;0.70;;;;;;;;;;5064340;28;20059;-79
2024/02/09 11:14:53;;;;;;;1.08;0.77;;;;;;;;;;5061974;28;20039;-79
2024/02/09 11:17:19;;;;;;;2.55;0.82;;;;;;;;;;5042256;28;20029;-81
2024/02/09 11:19:45;;;;;;;1.67;0.70;;;;;;;;;;5028045;28;20025;-79
2024/02/09 11:22:12;;;;;;;1.67;0.70;;;;;;;;;;5055167;28;20075;-79
2024/02/09 11:24:39;;;;;;;1.95;0.80;;;;;;;;;;5047265;28;20081;-80
2024/02/09 11:27:06;;;;;;;1.33;0.70;;;;;;;;;;5046278;28;20030;-79
2024/02/09 11:29:32;;;;;;;1.20;0.70;;;;;;;;;;5036732;28;20052;-80
2024/02/09 11:32:02;;;;;;;1.98;0.98;;;;;;;;;;5052179;28;20489;-79
2024/02/09 11:34:29;;;;;;;1.23;0.88;;;;;;;;;;5052780;28;20152;-78
2024/02/09 11:36:58;;;;;;;3.03;1.45;;;;;;;;;;5039605;28;20044;-79
2024/02/09 11:39:25;;;;;;;2.17;1.00;;;;;;;;;;5068803;28;20032;-78
2024/02/09 11:41:51;;;;;;;1.45;0.98;;;;;;;;;;5057631;28;20033;-78
2024/02/09 11:44:23;;;;;;;0.82;0.82;;;;;;;;;;5066289;28;20089;-78
2024/02/09 11:46:52;;;;;;;;;;;;;;;;;;5056999;28;20024;-79
2024/02/09 11:49:18;;;;;;;0.65;0.60;;;;;;;;;;5053321;28;19909;-80
2024/02/09 11:51:45;;;;;;;1.38;1.10;;;;;;;;;;5041912;28;20088;-80
2024/02/09 11:54:12;;;;;;;0.75;0.70;;;;;;;;;;5033794;28;20388;-79
2024/02/09 11:56:40;;;;;;;1.38;0.85;;;;;;;;;;5053229;28;21016;-78
2024/02/09 11:59:06;;;;;;;1.25;0.80;;;;;;;;;;5037591;28;20014;-78
2024/02/09 12:01:33;;;;;;;2.20;1.13;;;;;;;;;;5054680;28;20052;-78
2024/02/09 12:03:59;;;;;;;6.30;1.58;;;;;;;;;;5047257;28;20056;-79
2024/02/09 12:06:29;;;;;;;4.40;1.50;;;;;;;;;;5043520;28;20021;-79
2024/02/09 12:08:56;;;;;;;3.30;1.35;;;;;;;;;;5040471;28;20024;-80
2024/02/09 12:11:22;;;;;;;4.30;1.35;;;;;;;;;;5040336;28;20163;-79
2024/02/09 12:13:49;;;;;;;4.28;1.70;;;;;;;;;;5062899;28;20133;-79
2024/02/09 12:16:16;;;;;;;2.55;1.30;;;;;;;;;;5054163;28;20085;-79
2024/02/09 12:18:43;;;;;;;1.73;1.23;;;;;;;;;;5039679;28;20032;-81
2024/02/09 12:21:09;;;;;;;2.47;1.20;;;;;;;;;;5021985;28;20018;-81
2024/02/09 12:23:35;;;;;;;5.63;1.77;;;;;;;;;;5049963;28;20391;-80
2024/02/09 12:26:05;;;;;;;4.75;1.38;;;;;;;;;;5026471;28;20025;-79
2024/02/09 12:28:38;;;;;;;5.32;1.70;;;;;;;;;;5043595;28;20459;-81
2024/02/09 12:31:05;;;;;;;3.83;1.83;;;;;;;;;;5044143;28;20021;-80
2024/02/09 12:33:32;;;;;;;7.22;2.85;;;;;;;;;;5061541;28;20063;-78
2024/02/09 12:36:08;;;;;;;4.40;1.73;;;;;;;;;;5050256;28;20025;-78
2024/02/09 12:38:38;;;;;;;6.63;1.58;;;;;;;;;;5062772;28;20097;-79
2024/02/09 12:41:05;;;;;;;3.53;1.50;;;;;;;;;;5046982;28;20383;-80
2024/02/09 12:43:31;;;;;;;5.13;1.30;;;;;;;;;;5069468;28;20041;-81
2024/02/09 12:46:00;;;;;;;4.10;1.80;;;;;;;;;;5042298;28;20028;-79
2024/02/09 12:48:28;;;;;;;2.75;1.80;;;;;;;;;;5044001;28;20022;-80
2024/02/09 12:50:56;;;;;;;1.95;1.58;;;;;;;;;;5029865;28;20065;-79
2024/02/09 12:53:23;;;;;;;4.15;1.33;;;;;;;;;;5035188;28;20055;-79
2024/02/09 12:55:49;;;;;;;3.92;1.02;;;;;;;;;;5054469;28;20029;-79
2024/02/09 12:58:16;;;;;;;3.70;1.20;;;;;;;;;;5028972;28;20029;-79
2024/02/09 13:00:43;;;;;;;2.78;1.50;;;;;;;;;;5030396;28;20025;-78
2024/02/09 13:03:10;;;;;;;4.82;1.45;;;;;;;;;;5034841;28;20093;-79
2024/02/09 13:05:36;;;;;;;5.10;1.90;;;;;;;;;;5020049;28;20068;-80
2024/02/09 13:08:02;;;;;;;4.78;1.63;;;;;;;;;;5065035;28;20024;-80
2024/02/09 13:10:28;;;;;;;6.65;1.52;;;;;;;;;;5042865;28;20041;-79
2024/02/09 13:12:55;;;;;;;3.30;1.48;;;;;;;;;;5039539;28;20025;-80
2024/02/09 13:15:28;;;;;;;3.63;1.92;;;;;;;;;;5071737;28;20110;-80
2024/02/09 13:17:54;;;;;;;2.05;1.30;;;;;;;;;;5047441;28;20476;-80
2024/02/09 13:20:20;;;;;;;1.60;0.88;;;;;;;;;;5055462;28;20040;-79
2024/02/09 13:22:48;;;;;;;2.53;1.38;;;;;;;;;;5039495;28;20025;-79
2024/02/09 13:25:16;;;;;;;2.15;1.45;;;;;;;;;;5022079;28;20553;-80
2024/02/09 13:27:42;;;;;;;2.42;1.30;;;;;;;;;;5049570;28;20086;-81
2024/02/09 13:30:09;;;;;;;3.80;1.63;;;;;;;;;;5037185;28;20025;-80
2024/02/09 13:32:35;;;;;;;5.93;2.17;;;;;;;;;;5038564;28;20025;-80
2024/02/09 13:35:13;;;;;;;6.68;1.90;;;;;;;;;;5022905;28;20117;-80
2024/02/09 13:37:44;;;;;;;5.68;2.22;;;;;;;;;;5051347;28;20022;-81
2024/02/09 13:40:15;;;;;;;4.10;1.88;;;;;;;;;;5039805;28;20120;-78
2024/02/09 13:42:45;;;;;;;4.60;1.60;;;;;;;;;;5053424;28;20029;-79
2024/02/09 13:45:11;;;;;;;3.80;1.60;;;;;;;;;;5067029;28;20021;-79
2024/02/09 13:47:37;;;;;;;4.80;1.85;;;;;;;;;;5056542;28;20029;-79
2024/02/09 13:50:07;;;;;;;6.18;1.65;;;;;;;;;;5041738;28;20029;-80
2024/02/09 13:52:33;;;;;;;3.72;1.95;;;;;;;;;;5061879;28;20490;-79
2024/02/09 13:55:00;;;;;;;2.35;1.52;;;;;;;;;;5042296;28;20033;-80
2024/02/09 13:57:26;;;;;;;3.53;1.45;;;;;;;;;;5054688;28;20029;-77
2024/02/09 13:59:52;;;;;;;6.80;2.05;;;;;;;;;;5051694;28;20589;-80
2024/02/09 14:02:18;;;;;;;3.15;1.70;;;;;;;;;;5044254;28;20048;-80
2024/02/09 14:04:44;;;;;;;2.60;1.40;;;;;;;;;;5042599;28;20044;-79
2024/02/09 14:07:10;;;;;;;4.03;1.73;;;;;;;;;;5051898;28;20032;-80
2024/02/09 14:09:38;;;;;;;4.38;1.45;;;;;;;;;;5041266;28;20403;-81
2024/02/09 14:12:05;;;;;;;2.58;1.60;;;;;;;;;;5051942;28;20037;-79
2024/02/09 14:14:31;;;;;;;3.13;1.60;;;;;;;;;;5055210;28;20057;-80
2024/02/09 14:16:57;;;;;;;3.70;1.30;;;;;;;;;;5057922;28;20028;-78
2024/02/09 14:19:23;;;;;;;3.58;1.60;;;;;;;;;;5050751;28;20395;-81
2024/02/09 14:21:50;;;;;;;3.45;1.65;;;;;;;;;;5064492;28;20084;-80
2024/02/09 14:24:16;;;;;;;4.53;1.50;;;;;;;;;;5045777;28;20009;-81
2024/02/09 14:26:44;;;;;;;3.40;1.42;;;;;;;;;;5071961;28;20032;-81
2024/02/09 14:29:13;;;;;;;3.75;1.85;;;;;;;;;;5065215;28;20037;-81
2024/02/09 14:31:39;;;;;;;2.97;1.35;;;;;;;;;;5047322;28;20051;-81
2024/02/09 14:34:05;;;;;;;4.32;1.55;;;;;;;;;;5058361;28;20025;-81
2024/02/09 14:36:31;;;;;;;6.05;2.35;;;;;;;;;;5052094;28;20047;-81
2024/02/09 14:38:58;;;;;;;7.38;2.40;;;;;;;;;;5075882;28;20062;-79
2024/02/09 14:41:24;;;;;;;5.97;2.20;;;;;;;;;;5068888;28;20035;-81
2024/02/09 14:43:50;;;;;;;3.63;1.50;;;;;;;;;;5066777;28;20028;-80
2024/02/09 14:46:18;;;;;;;4.53;1.73;;;;;;;;;;5063781;28;20170;-80
2024/02/09 14:48:45;;;;;;;3.25;1.50;;;;;;;;;;5042419;28;20665;-79
2024/02/09 14:51:11;;;;;;;5.50;1.92;;;;;;;;;;5063728;28;20055;-80
2024/02/09 14:53:37;;;;;;;6.15;2.20;;;;;;;;;;5035473;28;20036;-80
2024/02/09 14:56:04;;;;;;;5.05;2.17;;;;;;;;;;5049818;28;20120;-80
2024/02/09 14:58:32;;;;;;;4.18;1.88;;;;;;;;;;5056779;28;20071;-79
2024/02/09 15:00:58;;;;;;;4.05;1.95;;;;;;;;;;5039987;28;20021;-79
2024/02/09 15:03:24;;;;;;;4.80;1.80;;;;;;;;;;5057685;28;20021;-79
2024/02/09 15:05:50;;;;;;;3.83;1.38;;;;;;;;;;5040688;28;20391;-80
2024/02/09 15:08:17;;;;;;;4.45;1.73;;;;;;;;;;5037245;28;20025;-80
2024/02/09 15:10:43;;;;;;;4.22;1.60;;;;;;;;;;5056970;28;20040;-79
2024/02/09 15:13:12;;;;;;;2.25;1.33;;;;;;;;;;5066265;28;20025;-79
2024/02/09 15:15:42;;;;;;;2.47;1.48;;;;;;;;;;5066311;28;20025;-79
2024/02/09 15:18:08;;;;;;;2.22;1.30;;;;;;;;;;5057102;28;20029;-80
2024/02/09 15:20:36;;;;;;;2.55;1.15;;;;;;;;;;5055215;28;20033;-81
2024/02/09 15:23:02;;;;;;;4.75;1.50;;;;;;;;;;5050131;28;20428;-79
2024/02/09 15:25:28;;;;;;;1.83;1.40;;;;;;;;;;5057927;28;20021;-79
2024/02/09 15:27:55;;;;;;;2.40;1.40;;;;;;;;;;5040626;28;20032;-80
2024/02/09 15:30:22;;;;;;;1.98;1.15;;;;;;;;;;5050941;28;20021;-80
2024/02/09 15:32:49;;;;;;;1.50;1.25;;;;;;;;;;5051672;28;20052;-79
2024/02/09 15:35:17;;;;;;;2.38;0.90;;;;;;;;;;5040463;28;20067;-80
2024/02/09 15:37:44;;;;;;;1.35;1.08;;;;;;;;;;5042147;28;20029;-80
2024/02/09 15:40:11;;;;;;;1.80;1.15;;;;;;;;;;5037481;28;20025;-80
2024/02/09 15:42:37;;;;;;;1.60;1.10;;;;;;;;;;5056161;28;20039;-80
2024/02/09 15:45:03;;;;;;;1.65;1.10;;;;;;;;;;5038741;28;20029;-80
2024/02/09 15:47:30;;;;;;;1.75;1.25;;;;;;;;;;5054621;28;20021;-79
2024/02/09 15:49:57;;;;;;;1.55;0.75;;;;;;;;;;5021771;28;20093;-79
2024/02/09 15:52:23;;;;;;;2.28;1.23;;;;;;;;;;5034890;28;20128;-79
2024/02/09 15:54:52;;;;;;;1.60;1.00;;;;;;;;;;5039894;28;20080;-79
2024/02/09 15:57:18;;;;;;;0.98;0.63;;;;;;;;;;5046342;28;20025;-79
2024/02/09 15:59:45;;;;;;;3.42;1.52;;;;;;;;;;5059595;28;20029;-79
2024/02/09 16:02:11;;;;;;;2.72;1.30;;;;;;;;;;5039580;28;20029;-81
2024/02/09 16:04:37;;;;;;;1.40;1.20;;;;;;;;;;5056901;28;20028;-79
2024/02/09 16:07:03;;;;;;;1.30;1.17;;;;;;;;;;5031713;28;20026;-80
2024/02/09 16:09:29;;;;;;;1.75;1.25;;;;;;;;;;5057303;28;20092;-79
2024/02/09 16:11:57;;;;;;;0.90;0.77;;;;;;;;;;5057903;28;20033;-80
2024/02/09 16:14:24;;;;;;;0.70;0.70;;;;;;;;;;5059850;28;20025;-79
2024/02/09 16:16:50;;;;;;;1.30;0.80;;;;;;;;;;5061487;28;20021;-79
2024/02/09 16:19:16;;;;;;;0.73;0.65;;;;;;;;;;5062073;28;20080;-79
2024/02/09 16:21:42;;;;;;;1.67;1.05;;;;;;;;;;5070599;28;20021;-79
2024/02/09 16:24:09;;;;;;;1.40;1.20;;;;;;;;;;5064126;28;20503;-79
2024/02/09 16:26:35;;;;;;;1.40;0.95;;;;;;;;;;5034814;28;20112;-80
2024/02/09 16:29:02;;;;;;;1.48;0.90;;;;;;;;;;5058627;28;20048;-78